Time;durP1;ratioP1;P1;durP2;ratioP2;P2;SDS_P1;SDS_P2;PMS_P1;PMS_P2;Temp;Humidity;BMP_temperature;BMP_pressure;BME280_temperature;BME280_humidity;BME280_pressure;Samples;Min_cycle;Max_cycle;Signal;HPM_P1;HPM_P2
2023/12/01 00:00:54;;;;;;;14.90;13.50;;;5.70;99.90;;;;;;10266575;28;20232;-76
2023/12/01 00:05:56;;;;;;;14.60;13.20;;;5.70;99.90;;;;;;10279621;28;20291;-75
2023/12/01 00:10:59;;;;;;;15.60;14.10;;;5.70;99.90;;;;;;10280986;28;20272;-76
2023/12/01 00:16:01;;;;;;;14.33;13.00;;;5.70;99.90;;;;;;10246061;28;20564;-76
2023/12/01 00:21:03;;;;;;;14.17;12.90;;;5.70;99.90;;;;;;10278031;28;20228;-76
2023/12/01 00:26:07;;;;;;;15.30;13.90;;;5.70;99.90;;;;;;10286269;28;20239;-76
2023/12/01 00:31:09;;;;;;;15.47;13.97;;;5.70;99.90;;;;;;10280262;28;20251;-76
2023/12/01 00:36:11;;;;;;;14.90;13.37;;;5.70;99.90;;;;;;10245030;28;20622;-76
2023/12/01 00:41:14;;;;;;;16.77;15.20;;;5.70;99.90;;;;;;10258635;28;20236;-76
2023/12/01 00:46:16;;;;;;;18.33;16.60;;;5.70;99.90;;;;;;10260861;28;20212;-77
2023/12/01 00:51:19;;;;;;;17.00;15.47;;;5.70;99.90;;;;;;10274238;28;20604;-77
2023/12/01 00:56:22;;;;;;;15.77;14.27;;;5.80;99.90;;;;;;10259908;28;20663;-76
2023/12/01 01:01:24;;;;;;;18.03;16.23;;;5.80;99.90;;;;;;10242466;28;20247;-77
2023/12/01 01:06:26;;;;;;;17.70;16.00;;;5.90;99.90;;;;;;10240694;28;20208;-76
2023/12/01 01:11:29;;;;;;;16.07;14.57;;;5.90;99.90;;;;;;10266770;28;20252;-76
2023/12/01 01:16:31;;;;;;;17.60;15.70;;;5.80;99.90;;;;;;10277748;28;20208;-76
2023/12/01 01:21:33;;;;;;;19.37;17.47;;;5.80;99.90;;;;;;10244649;28;20224;-77
2023/12/01 01:26:37;;;;;;;18.27;16.33;;;5.80;99.90;;;;;;10260704;28;20262;-77
2023/12/01 01:31:39;;;;;;;17.83;16.13;;;5.70;99.90;;;;;;10255991;28;20224;-76
2023/12/01 01:36:44;;;;;;;18.43;16.53;;;5.60;99.90;;;;;;10239019;28;20606;-76
2023/12/01 01:41:47;;;;;;;20.07;17.70;;;5.60;99.90;;;;;;10253116;28;20231;-76
2023/12/01 01:46:50;;;;;;;19.73;17.73;;;5.60;99.90;;;;;;10259524;28;20208;-77
2023/12/01 01:51:52;;;;;;;20.33;18.43;;;5.50;99.90;;;;;;10259516;28;20217;-77
2023/12/01 01:56:57;;;;;;;19.73;17.97;;;5.50;99.90;;;;;;10262565;28;20212;-77
2023/12/01 02:01:59;;;;;;;20.70;18.47;;;5.40;99.90;;;;;;10245409;28;20728;-77
2023/12/01 02:07:01;;;;;;;20.37;18.27;;;5.30;99.90;;;;;;10242426;28;20663;-76
2023/12/01 02:12:05;;;;;;;21.47;19.40;;;5.30;99.90;;;;;;10266152;28;20606;-75
2023/12/01 02:17:07;;;;;;;22.10;19.80;;;5.20;99.90;;;;;;10274186;28;20204;-76
2023/12/01 02:22:10;;;;;;;21.90;19.53;;;5.20;99.90;;;;;;10292506;28;20736;-77
2023/12/01 02:27:12;;;;;;;22.40;20.40;;;5.20;99.90;;;;;;10282037;28;20209;-77
2023/12/01 02:32:14;;;;;;;21.03;18.93;;;5.10;99.90;;;;;;10258222;28;20718;-77
2023/12/01 02:37:18;;;;;;;22.17;20.07;;;5.10;99.90;;;;;;10257682;28;20258;-76
2023/12/01 02:42:19;;;;;;;21.97;19.87;;;5.10;99.90;;;;;;10263355;28;20289;-77
2023/12/01 02:47:21;;;;;;;21.53;19.53;;;5.10;99.90;;;;;;10264515;28;20243;-76
2023/12/01 02:52:25;;;;;;;21.33;19.37;;;5.00;99.90;;;;;;10245697;28;20239;-77
2023/12/01 02:57:27;;;;;;;23.03;20.80;;;4.90;99.90;;;;;;10267304;28;20250;-76
2023/12/01 03:02:28;;;;;;;22.67;20.57;;;4.80;99.90;;;;;;10267406;28;20220;-76
2023/12/01 03:07:32;;;;;;;23.27;21.07;;;4.80;99.90;;;;;;10269662;28;20204;-77
2023/12/01 03:12:34;;;;;;;25.40;22.67;;;4.70;99.90;;;;;;10269862;28;20646;-76
2023/12/01 03:17:35;;;;;;;22.87;20.63;;;4.70;99.90;;;;;;10277711;28;20579;-76
2023/12/01 03:22:40;;;;;;;22.17;20.00;;;4.60;99.90;;;;;;10261367;28;20220;-76
2023/12/01 03:27:44;;;;;;;24.20;21.90;;;4.50;99.90;;;;;;10279990;28;20193;-76
2023/12/01 03:32:48;;;;;;;23.50;21.17;;;4.50;99.90;;;;;;10277342;23;20251;-78
2023/12/01 03:37:56;;;;;;;25.33;22.83;;;4.50;99.90;;;;;;10324146;28;20211;-78
2023/12/01 03:42:58;;;;;;;24.70;22.37;;;4.50;99.90;;;;;;10275892;28;20319;-78
2023/12/01 03:48:00;;;;;;;25.07;22.77;;;4.50;99.90;;;;;;10295748;28;20622;-78
2023/12/01 03:53:03;;;;;;;25.93;23.53;;;4.50;99.90;;;;;;10296478;28;20608;-79
2023/12/01 03:58:05;;;;;;;26.97;24.40;;;4.50;99.90;;;;;;10279256;28;20288;-78
2023/12/01 04:03:07;;;;;;;27.63;25.10;;;4.50;99.90;;;;;;10296601;28;20306;-78
2023/12/01 04:08:10;;;;;;;26.40;24.00;;;4.50;99.90;;;;;;10309369;28;20203;-78
2023/12/01 04:13:15;;;;;;;26.53;24.07;;;4.50;99.90;;;;;;10305109;28;20282;-77
2023/12/01 04:18:17;;;;;;;26.53;24.10;;;4.50;99.90;;;;;;10284418;28;20697;-78
2023/12/01 04:23:21;;;;;;;25.20;22.90;;;4.50;99.90;;;;;;10287672;28;20219;-78
2023/12/01 04:28:23;;;;;;;28.37;25.97;;;4.40;99.90;;;;;;10286378;28;20206;-78
2023/12/01 04:33:24;;;;;;;28.83;25.97;;;4.50;99.90;;;;;;10307754;28;20289;-78
2023/12/01 04:38:28;;;;;;;29.93;27.03;;;4.50;99.90;;;;;;10293585;28;20576;-78
2023/12/01 04:43:30;;;;;;;28.70;26.00;;;4.40;99.90;;;;;;10303144;28;20227;-78
2023/12/01 04:48:32;;;;;;;27.77;25.27;;;4.40;99.90;;;;;;10307197;28;20206;-78
2023/12/01 04:53:35;;;;;;;26.97;24.53;;;4.40;99.90;;;;;;10299147;28;20641;-78
2023/12/01 04:58:37;;;;;;;28.97;26.27;;;4.40;99.90;;;;;;10299496;28;20461;-79
2023/12/01 05:03:39;;;;;;;28.57;25.97;;;4.40;99.90;;;;;;10293610;28;20641;-78
2023/12/01 05:08:42;;;;;;;25.50;23.30;;;4.40;99.90;;;;;;10296979;28;20192;-79
2023/12/01 05:13:44;;;;;;;24.73;22.63;;;4.40;99.90;;;;;;10309638;28;20228;-78
2023/12/01 05:18:46;;;;;;;25.23;23.10;;;4.30;99.90;;;;;;10300327;28;20386;-78
2023/12/01 05:23:49;;;;;;;24.83;22.70;;;4.30;99.90;;;;;;10322502;28;20211;-77
2023/12/01 05:28:51;;;;;;;26.43;23.97;;;4.30;99.90;;;;;;10326278;28;20187;-78
2023/12/01 05:33:53;;;;;;;23.93;21.90;;;4.30;99.90;;;;;;10330837;28;20223;-78
2023/12/01 05:38:57;;;;;;;26.10;23.90;;;4.30;99.90;;;;;;10329586;28;20227;-78
2023/12/01 05:43:59;;;;;;;23.67;21.37;;;4.30;99.90;;;;;;10328553;28;20533;-79
2023/12/01 05:49:02;;;;;;;25.00;22.80;;;4.30;99.90;;;;;;10329755;28;20631;-77
2023/12/01 05:54:05;;;;;;;25.03;22.77;;;4.40;99.90;;;;;;10329934;28;20648;-78
2023/12/01 05:59:07;;;;;;;24.77;22.67;;;4.40;99.90;;;;;;10330055;28;20215;-78
2023/12/01 06:04:09;;;;;;;25.10;22.90;;;4.30;99.90;;;;;;10319262;28;20278;-78
2023/12/01 06:09:15;;;;;;;23.17;21.13;;;4.30;99.90;;;;;;10328547;28;20254;-79
2023/12/01 06:14:17;;;;;;;23.87;21.87;;;4.30;99.90;;;;;;10309525;28;20223;-78
2023/12/01 06:19:20;;;;;;;25.03;22.70;;;4.30;99.90;;;;;;10293103;28;20595;-78
2023/12/01 06:24:23;;;;;;;26.17;23.90;;;4.30;99.90;;;;;;10326178;28;20262;-78
2023/12/01 06:29:25;;;;;;;22.77;20.97;;;4.30;99.90;;;;;;10292009;28;20230;-79
2023/12/01 06:34:28;;;;;;;21.57;19.77;;;4.30;99.90;;;;;;10311141;28;20664;-79
2023/12/01 06:39:31;;;;;;;22.80;20.90;;;4.30;99.90;;;;;;10338695;28;20227;-78
2023/12/01 06:44:34;;;;;;;22.33;20.23;;;4.30;99.90;;;;;;10298035;28;20220;-77
2023/12/01 06:49:36;;;;;;;21.93;20.10;;;4.30;99.90;;;;;;10338979;28;20192;-77
2023/12/01 06:54:40;;;;;;;20.80;19.20;;;4.30;99.90;;;;;;10340101;28;20219;-79
2023/12/01 06:59:41;;;;;;;21.53;19.37;;;4.40;99.90;;;;;;10314418;28;20223;-79
2023/12/01 07:04:43;;;;;;;20.30;18.23;;;4.40;99.90;;;;;;10295596;28;20689;-79
2023/12/01 07:09:47;;;;;;;19.37;17.87;;;4.40;99.90;;;;;;10335937;28;20224;-78
2023/12/01 07:14:49;;;;;;;21.70;19.90;;;4.40;99.90;;;;;;10307144;28;20224;-78
2023/12/01 07:19:51;;;;;;;21.10;19.10;;;4.40;99.90;;;;;;10333070;28;20250;-78
2023/12/01 07:24:54;;;;;;;21.13;19.30;;;4.40;99.90;;;;;;10331448;28;20712;-78
2023/12/01 07:29:56;;;;;;;20.70;18.90;;;4.40;99.90;;;;;;10315214;28;20195;-77
2023/12/01 07:34:58;;;;;;;20.57;18.87;;;4.40;99.90;;;;;;10332427;28;20227;-77
2023/12/01 07:40:02;;;;;;;21.13;19.37;;;4.40;99.90;;;;;;10333165;28;20227;-78
2023/12/01 07:45:05;;;;;;;22.77;20.67;;;4.40;99.90;;;;;;10291572;28;20571;-78
2023/12/01 07:50:09;;;;;;;22.13;20.13;;;4.40;99.90;;;;;;10325314;28;20204;-79
2023/12/01 07:55:12;;;;;;;22.97;21.07;;;4.40;99.90;;;;;;10328630;28;20219;-78
2023/12/01 08:00:15;;;;;;;24.13;22.03;;;4.40;99.90;;;;;;10311754;28;20220;-78
2023/12/01 08:05:17;;;;;;;20.77;18.97;;;4.40;99.90;;;;;;10321846;28;20285;-78
2023/12/01 08:10:21;;;;;;;22.77;20.77;;;4.40;99.90;;;;;;10326684;28;20282;-78
2023/12/01 08:15:23;;;;;;;22.90;20.70;;;4.40;99.90;;;;;;10315175;28;20246;-79
2023/12/01 08:20:25;;;;;;;22.70;20.70;;;4.40;99.90;;;;;;10317701;28;20730;-78
2023/12/01 08:25:28;;;;;;;21.83;19.93;;;4.40;99.90;;;;;;10317152;28;20216;-78
2023/12/01 08:30:30;;;;;;;24.13;21.93;;;4.40;99.90;;;;;;10309999;28;20258;-78
2023/12/01 08:35:32;;;;;;;24.70;22.40;;;4.40;99.90;;;;;;10315002;28;20243;-78
2023/12/01 08:40:35;;;;;;;21.80;19.90;;;4.40;99.90;;;;;;10309690;28;20226;-78
2023/12/01 08:45:37;;;;;;;23.63;21.53;;;4.40;99.90;;;;;;10306366;28;20216;-78
2023/12/01 08:50:39;;;;;;;24.57;22.17;;;4.50;99.90;;;;;;10310778;28;20199;-78
2023/12/01 08:55:42;;;;;;;22.07;20.07;;;4.50;99.90;;;;;;10314898;28;20208;-78
2023/12/01 09:00:44;;;;;;;23.63;21.60;;;4.50;99.90;;;;;;10324362;28;20223;-77
2023/12/01 09:05:46;;;;;;;23.30;21.10;;;4.50;99.90;;;;;;10308657;28;20195;-78
2023/12/01 09:10:50;;;;;;;24.17;21.97;;;4.50;99.90;;;;;;10322023;28;20270;-78
2023/12/01 09:15:51;;;;;;;22.43;20.50;;;4.60;99.90;;;;;;10321870;28;20234;-78
2023/12/01 09:20:53;;;;;;;22.27;20.27;;;4.60;99.90;;;;;;10284997;28;20223;-78
2023/12/01 09:25:57;;;;;;;22.53;20.53;;;4.60;99.90;;;;;;10290020;28;20207;-78
2023/12/01 09:31:03;;;;;;;23.53;21.43;;;4.70;99.90;;;;;;10302972;28;20208;-78
2023/12/01 09:36:06;;;;;;;25.20;23.00;;;4.70;99.90;;;;;;10320760;28;20361;-78
2023/12/01 09:41:09;;;;;;;24.90;22.40;;;4.70;99.90;;;;;;10312535;28;20236;-78
2023/12/01 09:46:12;;;;;;;24.50;22.30;;;4.70;99.90;;;;;;10301014;28;20210;-78
2023/12/01 09:51:14;;;;;;;23.97;21.87;;;4.60;99.90;;;;;;10299974;28;20761;-78
2023/12/01 09:56:19;;;;;;;26.00;23.60;;;4.60;99.90;;;;;;10308143;28;20217;-78
2023/12/01 10:01:21;;;;;;;26.03;23.70;;;4.50;99.90;;;;;;10307783;28;20285;-78
2023/12/01 10:06:23;;;;;;;28.03;25.47;;;4.50;99.90;;;;;;10308913;28;20215;-77
2023/12/01 10:11:27;;;;;;;29.00;26.23;;;4.60;99.90;;;;;;10317308;28;20234;-78
2023/12/01 10:16:35;;;;;;;27.17;24.67;;;4.60;99.90;;;;;;10324266;28;20195;-78
2023/12/01 10:21:42;;;;;;;28.13;25.53;;;4.60;99.90;;;;;;10316982;28;20258;-78
2023/12/01 10:26:46;;;;;;;25.17;22.87;;;4.60;99.90;;;;;;10313273;28;20195;-78
2023/12/01 10:31:48;;;;;;;26.97;24.43;;;4.60;99.90;;;;;;10315808;28;20267;-78
2023/12/01 10:36:52;;;;;;;28.27;25.77;;;4.60;99.90;;;;;;10316866;28;20200;-78
2023/12/01 10:41:56;;;;;;;29.10;26.40;;;4.60;99.90;;;;;;10298254;28;20219;-78
2023/12/01 10:46:58;;;;;;;29.37;26.77;;;4.60;99.90;;;;;;10316244;28;20229;-78
2023/12/01 10:52:03;;;;;;;31.57;28.57;;;4.50;99.90;;;;;;10301505;28;20219;-77
2023/12/01 10:57:15;;;;;;;30.00;27.20;;;4.60;99.90;;;;;;10318329;28;20657;-77
2023/12/01 11:02:20;;;;;;;30.80;28.07;;;4.60;99.90;;;;;;10321906;28;20235;-78
2023/12/01 11:07:37;;;;;;;29.50;26.20;;;4.50;99.90;;;;;;10317284;28;20259;-78
2023/12/01 11:12:51;;;;;;;30.50;27.43;;;4.60;99.90;;;;;;10332596;28;20652;-78
2023/12/01 11:17:53;;;;;;;25.20;22.90;;;4.60;99.90;;;;;;10313052;28;20241;-77
2023/12/01 11:23:22;;;;;;;31.47;28.37;;;4.60;99.90;;;;;;10308373;28;20232;-78
2023/12/01 11:28:32;;;;;;;34.73;31.13;;;4.50;99.90;;;;;;10282730;28;20200;-78
2023/12/01 11:33:37;;;;;;;32.30;29.07;;;4.50;99.90;;;;;;10308587;28;20641;-78
2023/12/01 11:39:22;;;;;;;33.10;29.90;;;4.50;99.90;;;;;;10321902;28;20199;-78
2023/12/01 11:44:29;;;;;;;32.23;29.10;;;4.50;99.90;;;;;;10304681;28;20246;-78
2023/12/01 11:49:32;;;;;;;34.87;31.17;;;4.50;99.90;;;;;;10313860;28;20270;-79
2023/12/01 11:54:36;;;;;;;34.70;31.00;;;4.50;99.90;;;;;;10301917;28;20224;-79
2023/12/01 11:59:39;;;;;;;38.00;34.30;;;4.50;99.90;;;;;;10309519;28;20223;-78
2023/12/01 12:04:42;;;;;;;40.87;36.17;;;4.50;99.90;;;;;;10305379;28;20274;-80
2023/12/01 12:09:44;;;;;;;42.10;34.87;;;4.50;99.90;;;;;;10281206;28;20195;-79
2023/12/01 12:14:50;;;;;;;40.80;36.47;;;4.50;99.90;;;;;;10293892;28;20271;-79
2023/12/01 12:19:52;;;;;;;40.30;36.00;;;4.50;99.90;;;;;;10312019;28;20701;-78
2023/12/01 12:24:54;;;;;;;42.63;36.97;;;4.50;99.90;;;;;;10320295;28;20231;-79
2023/12/01 12:30:02;;;;;;;42.67;37.10;;;4.50;99.90;;;;;;10294766;28;20243;-79
2023/12/01 12:35:05;;;;;;;42.27;37.77;;;4.50;99.90;;;;;;10304275;28;20230;-79
2023/12/01 12:40:09;;;;;;;42.50;37.77;;;4.50;99.90;;;;;;10328302;28;20234;-79
2023/12/01 12:45:14;;;;;;;43.10;38.60;;;4.50;99.90;;;;;;10318135;28;20269;-79
2023/12/01 12:50:18;;;;;;;44.27;39.20;;;4.60;99.90;;;;;;10309675;28;20204;-79
2023/12/01 12:55:26;;;;;;;44.60;39.43;;;4.60;99.90;;;;;;10297405;28;20227;-79
2023/12/01 13:00:30;;;;;;;43.53;38.80;;;4.60;99.90;;;;;;10309066;28;20439;-79
2023/12/01 13:05:32;;;;;;;42.80;37.23;;;4.60;99.90;;;;;;10293236;28;20243;-79
2023/12/01 13:10:34;;;;;;;41.87;36.77;;;4.60;99.90;;;;;;10314902;28;20602;-79
2023/12/01 13:15:37;;;;;;;45.17;37.33;;;4.60;99.90;;;;;;10307079;28;20595;-79
2023/12/01 13:20:39;;;;;;;40.87;35.07;;;4.60;99.90;;;;;;10326448;28;20702;-79
2023/12/01 13:25:41;;;;;;;43.10;35.10;;;4.50;99.90;;;;;;10292695;28;20223;-77
2023/12/01 13:30:44;;;;;;;33.03;29.50;;;4.50;99.90;;;;;;10313726;28;20202;-78
2023/12/01 13:35:46;;;;;;;42.87;38.20;;;4.50;99.90;;;;;;10306193;28;20743;-76
2023/12/01 13:40:48;;;;;;;36.93;32.87;;;4.40;99.90;;;;;;10322567;28;20314;-77
2023/12/01 13:45:51;;;;;;;38.90;31.87;;;4.30;99.90;;;;;;10302557;28;20196;-77
2023/12/01 13:50:53;;;;;;;38.80;34.20;;;4.00;99.90;;;;;;10313009;28;20188;-77
2023/12/01 13:55:55;;;;;;;38.63;34.07;;;3.80;99.90;;;;;;10311873;28;20623;-77
2023/12/01 14:00:58;;;;;;;39.53;34.07;;;3.70;99.90;;;;;;10315714;28;20251;-77
2023/12/01 14:06:00;;;;;;;38.17;34.00;;;3.60;99.90;;;;;;10319417;28;20225;-78
2023/12/01 14:11:02;;;;;;;40.67;36.20;;;3.60;99.90;;;;;;10342962;28;20250;-77
2023/12/01 14:16:06;;;;;;;42.80;37.33;;;3.60;99.90;;;;;;10309607;28;20202;-78
2023/12/01 14:21:08;;;;;;;40.23;35.67;;;3.60;99.90;;;;;;10326011;28;20239;-78
2023/12/01 14:26:11;;;;;;;41.40;36.80;;;3.70;99.90;;;;;;10322421;28;20199;-77
2023/12/01 14:31:14;;;;;;;42.33;36.27;;;3.70;99.90;;;;;;10337501;28;20716;-79
2023/12/01 14:36:16;;;;;;;40.00;35.27;;;3.70;99.90;;;;;;10335616;28;20266;-78
2023/12/01 14:41:18;;;;;;;37.00;33.00;;;3.70;99.90;;;;;;10338429;28;20312;-78
2023/12/01 14:46:21;;;;;;;41.70;35.00;;;3.70;99.90;;;;;;10340875;28;20207;-78
2023/12/01 14:51:23;;;;;;;42.57;35.00;;;3.80;99.90;;;;;;10338619;28;20254;-78
2023/12/01 14:56:25;;;;;;;39.40;32.67;;;3.70;99.90;;;;;;10338554;28;20261;-79
2023/12/01 15:01:28;;;;;;;42.77;33.97;;;3.70;99.90;;;;;;10314786;28;20281;-78
2023/12/01 15:06:30;;;;;;;41.77;33.47;;;3.80;99.90;;;;;;10331848;28;20724;-78
2023/12/01 15:11:32;;;;;;;42.40;34.90;;;3.80;99.90;;;;;;10331437;28;20234;-77
2023/12/01 15:16:35;;;;;;;42.93;36.40;;;3.80;99.90;;;;;;10331909;28;20743;-78
2023/12/01 15:21:37;;;;;;;41.90;35.47;;;3.90;99.90;;;;;;10332174;28;20227;-77
2023/12/01 15:26:39;;;;;;;40.67;33.37;;;3.90;99.90;;;;;;10335366;28;20699;-77
2023/12/01 15:31:42;;;;;;;39.57;33.03;;;3.90;99.90;;;;;;10331115;23;20247;-75
2023/12/01 15:36:44;;;;;;;42.60;32.00;;;3.90;99.90;;;;;;10304158;28;20196;-75
2023/12/01 15:41:47;;;;;;;39.30;33.40;;;3.90;99.90;;;;;;10303647;28;20507;-76
2023/12/01 15:46:50;;;;;;;39.90;33.27;;;3.90;99.90;;;;;;10313648;28;20278;-75
2023/12/01 15:51:52;;;;;;;37.70;31.77;;;3.90;99.90;;;;;;10299623;28;20232;-75
2023/12/01 15:56:54;;;;;;;41.20;33.90;;;3.90;99.90;;;;;;10327293;28;20206;-75
2023/12/01 16:01:57;;;;;;;42.20;31.10;;;3.80;99.90;;;;;;10327202;28;20238;-75
2023/12/01 16:06:59;;;;;;;41.30;32.13;;;3.80;99.90;;;;;;10309917;28;20200;-76
2023/12/01 16:12:01;;;;;;;39.50;33.60;;;3.80;99.90;;;;;;10303746;28;20224;-75
2023/12/01 16:17:04;;;;;;;43.80;34.03;;;3.90;99.90;;;;;;10312712;28;20199;-74
2023/12/01 16:22:06;;;;;;;39.67;30.90;;;3.80;99.90;;;;;;10303177;28;20269;-75
2023/12/01 16:27:08;;;;;;;43.83;34.43;;;3.80;99.90;;;;;;10309114;28;20195;-76
2023/12/01 16:32:12;;;;;;;39.77;32.97;;;3.80;99.90;;;;;;10308627;28;20716;-76
2023/12/01 16:37:16;;;;;;;39.33;32.70;;;3.90;99.90;;;;;;10305842;28;20238;-75
2023/12/01 16:42:20;;;;;;;42.87;31.30;;;3.90;99.90;;;;;;10322815;28;20220;-75
2023/12/01 16:47:23;;;;;;;45.70;33.60;;;3.90;99.90;;;;;;10304686;28;20538;-75
2023/12/01 16:52:25;;;;;;;43.87;33.97;;;3.90;99.90;;;;;;10307695;28;20207;-75
2023/12/01 16:57:27;;;;;;;43.47;33.87;;;3.90;99.90;;;;;;10306433;28;20207;-76
2023/12/01 17:02:30;;;;;;;47.00;33.00;;;3.80;99.90;;;;;;10282555;28;20247;-75
2023/12/01 17:07:32;;;;;;;46.37;33.77;;;3.80;99.90;;;;;;10301905;28;20617;-75
2023/12/01 17:12:34;;;;;;;47.57;34.80;;;3.80;99.90;;;;;;10321351;28;20220;-74
2023/12/01 17:17:38;;;;;;;42.37;32.00;;;3.80;99.90;;;;;;10303448;28;20295;-75
2023/12/01 17:22:40;;;;;;;48.27;33.47;;;3.80;99.90;;;;;;10302119;28;20310;-75
2023/12/01 17:27:42;;;;;;;47.97;33.10;;;3.90;99.90;;;;;;10302296;28;20628;-75
2023/12/01 17:32:45;;;;;;;48.50;33.67;;;3.90;99.90;;;;;;10301668;28;20227;-75
2023/12/01 17:37:47;;;;;;;48.40;33.27;;;3.80;99.90;;;;;;10304747;28;20559;-75
2023/12/01 17:42:49;;;;;;;48.87;34.40;;;3.80;99.90;;;;;;10320625;28;20219;-75
2023/12/01 17:47:52;;;;;;;51.10;35.17;;;3.90;99.90;;;;;;10299803;28;20200;-75
2023/12/01 17:52:54;;;;;;;49.70;34.00;;;3.90;99.90;;;;;;10299992;28;20219;-75
2023/12/01 17:57:57;;;;;;;49.67;33.80;;;3.90;99.90;;;;;;10282318;28;20259;-75
2023/12/01 18:03:00;;;;;;;46.60;33.43;;;3.80;99.90;;;;;;10299006;28;20211;-75
2023/12/01 18:08:02;;;;;;;48.50;32.60;;;3.90;99.90;;;;;;10297165;28;20227;-76
2023/12/01 18:13:04;;;;;;;50.67;35.33;;;3.90;99.90;;;;;;10298143;28;20228;-76
2023/12/01 18:18:07;;;;;;;49.80;35.77;;;3.90;99.90;;;;;;10296826;28;20214;-75
2023/12/01 18:23:09;;;;;;;47.97;35.27;;;3.90;99.90;;;;;;10296909;28;20232;-75
2023/12/01 18:28:11;;;;;;;43.80;32.30;;;3.80;99.90;;;;;;10296387;28;20196;-75
2023/12/01 18:33:14;;;;;;;47.30;34.30;;;3.80;99.90;;;;;;10299918;28;20278;-75
2023/12/01 18:38:17;;;;;;;48.33;34.43;;;3.80;99.90;;;;;;10302975;28;20292;-75
2023/12/01 18:43:19;;;;;;;38.50;26.77;;;3.80;99.90;;;;;;10302259;28;20607;-75
2023/12/01 18:48:24;;;;;;;49.33;35.10;;;3.90;99.90;;;;;;10301386;28;20206;-75
2023/12/01 18:53:26;;;;;;;45.03;33.67;;;4.00;99.90;;;;;;10301447;28;20223;-75
2023/12/01 18:58:27;;;;;;;48.20;32.80;;;3.90;99.90;;;;;;10282717;28;20200;-75
2023/12/01 19:03:31;;;;;;;43.57;32.30;;;3.80;99.90;;;;;;10305410;28;20679;-75
2023/12/01 19:08:33;;;;;;;44.20;32.30;;;3.90;99.90;;;;;;10318352;28;20211;-75
2023/12/01 19:13:34;;;;;;;41.73;31.40;;;3.90;99.90;;;;;;10310144;28;20720;-75
2023/12/01 19:18:38;;;;;;;40.90;32.40;;;3.90;99.90;;;;;;10318430;28;20773;-75
2023/12/01 19:23:40;;;;;;;43.77;33.17;;;3.80;99.90;;;;;;10317535;28;20298;-75
2023/12/01 19:28:42;;;;;;;43.47;31.87;;;3.90;99.90;;;;;;10305976;28;20256;-75
2023/12/01 19:33:45;;;;;;;43.87;32.33;;;3.90;99.90;;;;;;10316394;28;20223;-74
2023/12/01 19:38:47;;;;;;;42.33;31.53;;;3.90;99.90;;;;;;10304423;28;20616;-75
2023/12/01 19:43:49;;;;;;;39.77;29.73;;;3.90;99.90;;;;;;10319570;28;20227;-75
2023/12/01 19:48:52;;;;;;;36.60;30.03;;;3.90;99.90;;;;;;10320019;28;20592;-75
2023/12/01 19:53:55;;;;;;;37.83;30.27;;;3.90;99.90;;;;;;10323943;28;20257;-76
2023/12/01 19:58:57;;;;;;;40.90;29.77;;;3.90;99.90;;;;;;10314106;28;20262;-75
2023/12/01 20:04:00;;;;;;;35.50;30.50;;;3.90;99.90;;;;;;10320291;28;20315;-75
2023/12/01 20:09:02;;;;;;;34.63;29.00;;;3.90;99.90;;;;;;10317334;28;20215;-75
2023/12/01 20:14:04;;;;;;;35.53;28.83;;;3.80;99.90;;;;;;10300125;28;20227;-75
2023/12/01 20:19:08;;;;;;;37.73;30.10;;;3.90;99.90;;;;;;10296779;28;20216;-75
2023/12/01 20:24:10;;;;;;;36.40;29.70;;;3.80;99.90;;;;;;10302183;28;20247;-74
2023/12/01 20:29:12;;;;;;;36.87;30.30;;;3.90;99.90;;;;;;10317821;28;20528;-75
2023/12/01 20:34:15;;;;;;;36.10;28.27;;;3.90;99.90;;;;;;10316850;28;20243;-75
2023/12/01 20:39:17;;;;;;;37.30;29.50;;;3.80;99.90;;;;;;10314633;28;20199;-74
2023/12/01 20:44:19;;;;;;;36.30;30.03;;;3.80;99.90;;;;;;10317400;28;20215;-75
2023/12/01 20:49:22;;;;;;;36.80;30.93;;;3.80;99.90;;;;;;10316610;28;20210;-76
2023/12/01 20:54:24;;;;;;;37.93;30.27;;;3.80;99.90;;;;;;10300575;28;20234;-75
2023/12/01 20:59:26;;;;;;;34.97;31.17;;;3.90;99.90;;;;;;10299912;28;20214;-75
2023/12/01 21:04:29;;;;;;;41.83;30.83;;;3.90;99.90;;;;;;10304199;28;20720;-75
2023/12/01 21:09:31;;;;;;;36.10;28.80;;;3.80;99.90;;;;;;10323352;28;20236;-75
2023/12/01 21:14:34;;;;;;;37.20;29.97;;;3.80;99.90;;;;;;10315262;28;20740;-75
2023/12/01 21:19:37;;;;;;;38.57;30.10;;;3.80;99.90;;;;;;10317803;28;20250;-75
2023/12/01 21:24:39;;;;;;;38.70;29.40;;;3.80;99.90;;;;;;10314628;28;20235;-75
2023/12/01 21:29:41;;;;;;;41.17;31.00;;;3.80;99.90;;;;;;10308423;28;20203;-75
2023/12/01 21:34:44;;;;;;;42.13;32.10;;;3.80;99.90;;;;;;10295932;23;20259;-78
2023/12/01 21:39:46;;;;;;;38.43;31.20;;;3.80;99.90;;;;;;10312990;28;20254;-77
2023/12/01 21:44:48;;;;;;;36.87;31.50;;;3.80;99.90;;;;;;10311137;28;20712;-77
2023/12/01 21:49:51;;;;;;;36.00;30.37;;;3.80;99.90;;;;;;10290088;28;20205;-77
2023/12/01 21:54:53;;;;;;;36.70;28.67;;;3.80;99.90;;;;;;10310575;28;20274;-76
2023/12/01 21:59:58;;;;;;;39.97;31.07;;;3.80;99.90;;;;;;10288483;28;20576;-77
2023/12/01 22:05:01;;;;;;;40.13;31.10;;;3.90;99.90;;;;;;10300804;28;20277;-77
2023/12/01 22:10:03;;;;;;;41.73;31.60;;;3.80;99.90;;;;;;10305540;28;20251;-78
2023/12/01 22:15:07;;;;;;;35.70;29.60;;;3.80;99.90;;;;;;10317984;28;20273;-77
2023/12/01 22:20:12;;;;;;;38.60;30.60;;;3.80;99.90;;;;;;10305988;28;20203;-76
2023/12/01 22:25:14;;;;;;;41.30;31.13;;;3.90;99.90;;;;;;10279873;28;20543;-77
2023/12/01 22:30:16;;;;;;;34.57;29.20;;;3.90;99.90;;;;;;10308316;28;20216;-77
2023/12/01 22:35:19;;;;;;;36.30;29.97;;;3.80;99.90;;;;;;10290203;28;20239;-77
2023/12/01 22:40:21;;;;;;;38.20;29.33;;;3.80;99.90;;;;;;10280590;28;20211;-77
2023/12/01 22:45:23;;;;;;;38.33;28.53;;;3.80;99.90;;;;;;10309067;28;20231;-77
2023/12/01 22:50:26;;;;;;;36.07;28.70;;;3.80;99.90;;;;;;10314495;28;20223;-78
2023/12/01 22:55:28;;;;;;;37.80;29.77;;;3.80;99.90;;;;;;10303859;28;20215;-78
2023/12/01 23:00:30;;;;;;;41.00;30.87;;;3.80;99.90;;;;;;10293564;28;20272;-78
2023/12/01 23:05:34;;;;;;;35.10;28.70;;;3.80;99.90;;;;;;10316983;28;20751;-78
2023/12/01 23:10:35;;;;;;;39.53;31.07;;;3.80;99.90;;;;;;10293937;28;20255;-78
2023/12/01 23:15:37;;;;;;;44.70;31.80;;;3.80;99.90;;;;;;10320556;28;20269;-78
2023/12/01 23:20:40;;;;;;;38.97;29.90;;;3.80;99.90;;;;;;10316089;28;20199;-78
2023/12/01 23:25:42;;;;;;;36.40;28.97;;;3.80;99.90;;;;;;10323870;28;20294;-76
2023/12/01 23:30:44;;;;;;;41.97;32.77;;;3.70;99.90;;;;;;10310177;28;20319;-78
2023/12/01 23:35:48;;;;;;;41.83;31.33;;;3.70;99.90;;;;;;10292670;28;20655;-78
2023/12/01 23:40:50;;;;;;;37.87;28.80;;;3.80;99.90;;;;;;10314210;28;20688;-79
2023/12/01 23:45:52;;;;;;;40.40;31.43;;;3.70;99.90;;;;;;10303172;28;20237;-78
2023/12/01 23:50:55;;;;;;;36.23;29.80;;;3.80;99.90;;;;;;10316009;28;20230;-78
2023/12/01 23:56:00;;;;;;;36.03;29.97;;;3.80;99.90;;;;;;10312938;28;20215;-79
